FW2736 Weather Reports


Display with metric or nautical units.
time (UTC)temp
F
wind
direction
speed
MPH
gust
MPH
rain 1hr
in
rain 24hr
in
rain mn
in
humidity
%
barometer
mb
20191015145713 58 293 1.0 0.0 0.00 0.00 0.00 72 1018.3
20191015145208 57 293 2.0 0.0 0.00 0.00 0.00 75 1018.3
20191015144713 55 315 1.0 0.0 0.00 0.00 0.00 81 1017.9
20191015144209 53 293 2.0 0.0 0.00 0.00 0.00 83 1018.3
20191015143711 50 0 2.0 0.0 0.00 0.00 0.00 89 1017.9
20191015143208 46 270 0.0 0.0 0.00 0.00 0.00 93 1017.9
20191015142710 46 90 0.0 0.0 0.00 0.00 0.00 93 1017.9
20191015142209 45 270 0.0 0.0 0.00 0.00 0.00 93 1017.9
20191015141710 45 270 0.0 0.0 0.00 0.00 0.00 93 1017.9
20191015141208 45 90 0.0 0.0 0.00 0.00 0.00 93 1017.9
20191015140710 45 270 0.0 0.0 0.00 0.00 0.00 93 1017.9
20191015140211 45 270 0.0 0.0 0.00 0.00 0.00 93 1017.9
20191015135710 45 113 0.0 0.0 0.00 0.00 0.00 93 1017.6
20191015135209 46 135 1.0 0.0 0.00 0.00 0.00 93 1017.6
20191015134712 46 270 1.0 0.0 0.00 0.00 0.00 93 1017.6
20191015134209 46 225 1.0 0.0 0.00 0.00 0.00 93 1017.6
20191015133712 46 180 0.0 0.0 0.00 0.00 0.00 93 1017.6
20191015133211 46 113 1.0 0.0 0.00 0.00 0.00 93 1017.3
20191015132711 46 68 1.0 0.0 0.00 0.00 0.00 93 1017.3
20191015132210 46 90 1.0 0.0 0.00 0.00 0.00 94 1017.3
20191015131709 46 68 1.0 0.0 0.00 0.00 0.00 94 1017.3
20191015131207 45 248 0.0 0.0 0.00 0.00 0.00 94 1017.3
20191015130710 45 248 0.0 0.0 0.00 0.00 0.00 94 1017.3
20191015130209 46 293 0.0 0.0 0.00 0.00 0.00 94 1017.3
20191015125709 46 180 0.0 0.0 0.00 0.00 0.00 94 1016.9
20191015125210 46 113 0.0 0.0 0.00 0.00 0.00 94 1016.9
20191015124711 46 315 0.0 0.0 0.00 0.00 0.00 94 1016.9
20191015124212 46 315 0.0 0.0 0.00 0.00 0.00 94 1016.9
20191015123708 47 90 2.0 0.0 0.00 0.00 0.00 95 1016.9
20191015123209 47 293 1.0 0.0 0.00 0.00 0.00 95 1016.6
20191015122711 47 293 2.0 0.0 0.00 0.00 0.00 95 1016.6
20191015122211 48 293 0.0 0.0 0.00 0.00 0.00 95 1016.6
20191015121713 46 180 1.0 0.0 0.00 0.00 0.00 94 1016.9
20191015121210 46 270 0.0 0.0 0.00 0.00 0.00 94 1016.6
20191015120710 46 248 0.0 0.0 0.00 0.00 0.00 94 1016.6
20191015120213 46 338 0.0 0.0 0.00 0.00 0.00 94 1016.6
20191015115709 46 293 0.0 0.0 0.00 0.00 0.00 94 1016.6
20191015115212 46 0 0.0 0.0 0.00 0.00 0.00 94 1016.3
20191015114711 46 90 0.0 0.0 0.00 0.00 0.00 93 1016.6
20191015114212 46 203 0.0 0.0 0.00 0.00 0.00 93 1016.3
20191015113711 46 338 0.0 0.0 0.00 0.00 0.00 93 1016.3
20191015113208 46 270 0.0 0.0 0.00 0.00 0.00 93 1016.3
20191015112709 46 270 0.0 0.0 0.00 0.00 0.00 93 1016.3
20191015112210 46 248 0.0 0.0 0.00 0.00 0.00 93 1016.3
20191015112011 47 293 0.0 0.0 0.00 0.00 0.00 93 1016.6
20191015111610 47 338 0.0 0.0 0.00 0.00 0.00 93 1016.6
20191015111313 47 293 0.0 0.0 0.00 0.00 0.00 93 1016.3
20191015110212 47 338 0.0 0.0 0.00 0.00 0.00 92 1016.3
20191015105711 47 338 0.0 0.0 0.00 0.00 0.00 92 1016.3
20191015105210 47 270 0.0 0.0 0.00 0.00 0.00 92 1016.6
20191015104711 48 293 0.0 0.0 0.00 0.00 0.00 92 1016.6
20191015104210 48 293 0.0 0.0 0.00 0.00 0.00 92 1016.3
20191015103715 48 203 0.0 0.0 0.00 0.00 0.00 92 1016.3
20191015103211 48 338 0.0 0.0 0.00 0.00 0.00 92 1016.3
20191015102711 48 338 0.0 0.0 0.00 0.00 0.00 92 1016.3
20191015102211 48 293 0.0 0.0 0.00 0.00 0.00 92 1016.3
20191015101708 48 270 0.0 0.0 0.00 0.00 0.00 92 1016.3
20191015101208 49 90 0.0 0.0 0.00 0.00 0.00 92 1016.3
20191015100712 49 315 0.0 0.0 0.00 0.00 0.00 92 1016.6
20191015100210 49 68 0.0 0.0 0.00 0.00 0.00 92 1016.6
20191015095711 49 45 0.0 0.0 0.00 0.00 0.00 92 1016.6
20191015095210 49 338 0.0 0.0 0.00 0.00 0.00 91 1016.6
20191015094709 49 315 0.0 0.0 0.00 0.00 0.00 91 1016.6
20191015094210 49 338 0.0 0.0 0.00 0.00 0.00 91 1016.6
20191015093711 49 338 0.0 0.0 0.00 0.00 0.00 90 1016.6
20191015093211 49 270 0.0 0.0 0.00 0.00 0.00 90 1016.6
20191015092713 49 270 0.0 0.0 0.00 0.00 0.00 90 1016.6
20191015092212 49 293 0.0 0.0 0.00 0.00 0.00 90 1016.9
20191015091711 49 315 1.0 0.0 0.00 0.00 0.00 90 1016.9
20191015091211 50 293 0.0 0.0 0.00 0.00 0.00 90 1016.9
20191015090711 50 225 0.0 0.0 0.00 0.00 0.00 90 1016.6
20191015090211 50 293 0.0 0.0 0.00 0.00 0.00 90 1016.6
20191015085709 51 293 1.0 0.0 0.00 0.00 0.00 90 1016.9
20191015085210 50 293 2.0 0.0 0.00 0.00 0.00 89 1016.9
20191015084710 50 293 0.0 0.0 0.00 0.00 0.00 89 1016.9
20191015084210 50 315 0.0 0.0 0.00 0.00 0.00 89 1016.6
20191015083710 51 315 0.0 0.0 0.00 0.00 0.00 89 1016.6
20191015083208 51 315 0.0 0.0 0.00 0.00 0.00 89 1016.6
20191015082713 51 293 0.0 0.0 0.00 0.00 0.00 89 1016.6
20191015082210 51 315 2.0 0.0 0.00 0.00 0.00 89 1016.6
20191015081710 51 338 2.0 0.0 0.00 0.00 0.00 89 1016.6
20191015081211 51 315 0.0 0.0 0.00 0.00 0.00 88 1016.6
20191015080708 51 90 0.0 0.0 0.00 0.00 0.00 88 1016.6
20191015080212 51 68 0.0 0.0 0.00 0.00 0.00 88 1016.6
20191015075710 51 270 0.0 0.0 0.00 0.00 0.00 88 1016.6
20191015075210 51 315 0.0 0.0 0.00 0.00 0.00 88 1016.6
20191015074710 52 225 0.0 0.0 0.00 0.00 0.00 88 1016.6
20191015074213 52 293 0.0 0.0 0.00 0.00 0.00 88 1016.6
20191015073712 53 270 0.0 0.0 0.00 0.00 0.00 88 1016.6
20191015073210 53 270 0.0 0.0 0.00 0.00 0.00 88 1016.6
20191015072712 53 0 0.0 0.0 0.00 0.00 0.00 88 1016.6
20191015072212 53 293 1.0 0.0 0.00 0.00 0.00 88 1016.6
20191015071710 52 293 2.0 0.0 0.00 0.00 0.00 88 1016.6
20191015071213 52 293 2.0 0.0 0.00 0.00 0.00 86 1016.6
20191015070711 52 315 0.0 0.0 0.00 0.00 0.00 85 1016.6
20191015070215 53 315 0.0 0.0 0.00 0.00 0.00 85 1016.6
20191015065710 53 248 0.0 0.0 0.00 0.00 0.00 85 1016.6
20191015065212 53 270 0.0 0.0 0.00 0.00 0.00 85 1016.6
20191015064710 53 23 1.0 0.0 0.00 0.00 0.00 85 1016.6
20191015064213 53 315 0.0 0.0 0.00 0.00 0.00 84 1016.6
20191015063710 53 293 0.0 0.0 0.00 0.00 0.00 83 1016.6
20191015063211 54 270 0.0 0.0 0.00 0.00 0.00 83 1016.6
20191015062711 54 270 1.0 0.0 0.00 0.00 0.00 83 1016.6
20191015062211 54 23 1.0 0.0 0.00 0.00 0.00 83 1016.6
20191015061711 55 90 0.0 0.0 0.00 0.00 0.00 84 1016.6
20191015061209 55 293 0.0 0.0 0.00 0.00 0.00 84 1016.6
20191015060736 55 293 2.0 0.0 0.00 0.00 0.00 83 1016.6
20191015060212 55 293 1.0 0.0 0.00 0.00 0.00 83 1016.6
20191015055709 55 293 1.0 0.0 0.00 0.00 0.00 82 1016.6
20191015055212 55 338 1.0 0.0 0.00 0.00 0.00 79 1016.6
20191015054709 56 338 0.0 0.0 0.00 0.00 0.00 79 1016.6
20191015054213 57 293 0.0 0.0 0.00 0.00 0.00 79 1016.6
20191015053711 57 225 0.0 0.0 0.00 0.00 0.00 80 1016.3
20191015053513 57 113 0.0 0.0 0.00 0.00 0.00 80 1016.3
20191015052712 57 23 1.0 0.0 0.00 0.00 0.00 80 1016.3
20191015052210 58 315 1.0 0.0 0.00 0.00 0.00 80 1016.3
20191015051712 59 45 2.0 0.0 0.00 0.00 0.00 80 1016.3
20191015051209 57 135 1.0 0.0 0.00 0.00 0.00 81 1016.3
20191015050710 57 293 1.0 0.0 0.00 0.00 0.00 81 1016.3
20191015050213 57 293 2.0 0.0 0.00 0.00 0.00 80 1016.3
20191015045713 57 270 0.0 0.0 0.00 0.00 0.00 79 1016.3
20191015045209 57 180 0.0 0.0 0.00 0.00 0.00 78 1016.3
20191015044711 57 293 0.0 0.0 0.00 0.00 0.00 78 1016.3
20191015044210 58 293 1.0 0.0 0.00 0.00 0.00 78 1015.9
20191015043710 57 293 2.0 0.0 0.00 0.00 0.00 78 1015.9
20191015043212 58 270 2.0 0.0 0.00 0.00 0.00 76 1015.9
20191015042710 58 68 0.0 0.0 0.00 0.00 0.00 76 1015.9
20191015042210 59 248 0.0 0.0 0.00 0.00 0.00 76 1015.9
20191015041714 59 90 0.0 0.0 0.00 0.00 0.00 76 1015.6
20191015041212 59 338 1.0 0.0 0.00 0.00 0.00 75 1015.6
20191015040711 59 338 1.0 0.0 0.00 0.00 0.00 74 1015.6
20191015040210 60 315 0.0 0.0 0.00 0.00 0.00 73 1015.6
20191015035711 60 203 0.0 0.0 0.00 0.00 0.00 73 1015.6
20191015035211 60 135 1.0 0.0 0.00 0.00 0.00 73 1015.6
20191015034711 61 293 0.0 0.0 0.00 0.00 0.00 73 1015.6
20191015034313 61 315 2.0 0.0 0.00 0.00 0.00 73 1015.6
20191015033212 61 248 2.0 0.0 0.00 0.00 0.00 75 1015.2
20191015032710 61 315 1.0 0.0 0.00 0.00 0.00 74 1015.2
20191015032211 61 315 0.0 0.0 0.00 0.00 0.00 73 1015.2
20191015031709 61 315 3.0 0.0 0.00 0.00 0.00 72 1015.2
20191015031210 61 23 0.0 0.0 0.00 0.00 0.00 70 1014.9
20191015030712 62 0 2.0 0.0 0.00 0.00 0.00 70 1014.9
20191015030211 62 293 1.0 0.0 0.00 0.00 0.00 65 1014.9
20191015025713 63 293 1.0 0.0 0.00 0.00 0.00 65 1014.9
20191015025209 64 293 0.0 0.0 0.00 0.00 0.00 64 1014.9
20191015024710 65 293 0.0 0.0 0.00 0.00 0.00 61 1014.9
20191015024211 65 270 1.0 0.0 0.00 0.00 0.00 59 1014.6
20191015023712 66 293 1.0 0.0 0.00 0.00 0.00 59 1014.6
20191015023209 66 270 1.0 0.0 0.00 0.00 0.00 59 1014.6
20191015022710 66 270 3.0 0.0 0.00 0.00 0.00 59 1014.6
20191015022212 65 225 1.0 0.0 0.00 0.00 0.00 59 1014.6
20191015021710 65 180 0.0 0.0 0.00 0.00 0.00 55 1014.6
20191015021211 65 225 1.0 0.0 0.00 0.00 0.00 53 1014.2
20191015020712 66 203 0.0 0.0 0.00 0.00 0.00 52 1014.2
20191015020213 66 203 0.0 0.0 0.00 0.00 0.00 52 1014.2
20191015015708 66 90 0.0 0.0 0.00 0.00 0.00 50 1013.9
20191015015212 67 270 0.0 0.0 0.00 0.00 0.00 50 1014.2
20191015014717 68 270 0.0 0.0 0.00 0.00 0.00 49 1013.9
20191015014209 68 0 2.0 0.0 0.00 0.00 0.00 49 1013.9
20191015013709 68 293 2.0 0.0 0.00 0.00 0.00 48 1013.9
20191015013209 69 225 2.0 0.0 0.00 0.00 0.00 48 1013.9
20191015012710 69 0 2.0 0.0 0.00 0.00 0.00 47 1013.9
20191015012210 69 45 2.0 0.0 0.00 0.00 0.00 46 1013.9
20191015011710 69 315 1.0 0.0 0.00 0.00 0.00 46 1013.5
20191015011208 70 293 2.0 0.0 0.00 0.00 0.00 46 1013.5
20191015010712 70 315 3.0 0.0 0.00 0.00 0.00 45 1013.5
20191015010208 71 293 3.0 0.0 0.00 0.00 0.00 45 1013.5
20191015005711 71 270 2.0 0.0 0.00 0.00 0.00 44 1013.5
20191015005210 71 293 3.0 0.0 0.00 0.00 0.00 42 1013.5
20191015004712 72 293 1.0 0.0 0.00 0.00 0.00 41 1013.5
20191015004211 72 270 2.0 0.0 0.00 0.00 0.00 40 1013.5
20191015003712 72 293 2.0 0.0 0.00 0.00 0.00 39 1013.2
20191015003211 73 23 2.0 0.0 0.00 0.00 0.00 39 1013.2
20191015002710 73 293 3.0 0.0 0.00 0.00 0.00 38 1013.2
20191015002212 73 113 3.0 0.0 0.00 0.00 0.00 38 1013.2
20191015001712 74 0 3.0 0.0 0.00 0.00 0.00 38 1013.2
20191015001209 74 23 2.0 0.0 0.00 0.00 0.00 38 1013.2
20191015000711 74 45 2.0 0.0 0.00 0.00 0.00 37 1013.2
20191015000210 74 270 3.0 0.0 0.00 0.00 0.00 37 1013.2
20191014235710 75 23 2.0 0.0 0.00 0.00 0.00 36 1013.2
20191014235211 75 293 3.0 0.0 0.00 0.00 0.00 36 1013.2
20191014234714 76 23 2.0 0.0 0.00 0.00 0.00 35 1013.2
20191014234210 76 68 3.0 0.0 0.00 0.00 0.00 35 1013.2
20191014233709 76 23 3.0 0.0 0.00 0.00 0.00 35 1013.2
20191014233209 76 293 3.0 0.0 0.00 0.00 0.00 34 1013.2
20191014232708 76 315 4.0 0.0 0.00 0.00 0.00 34 1013.2
20191014232208 76 0 6.0 0.0 0.00 0.00 0.00 35 1013.2
20191014231712 77 315 1.0 0.0 0.00 0.00 0.00 34 1013.2
20191014231210 77 270 0.0 0.0 0.00 0.00 0.00 34 1013.2
20191014230711 78 113 1.0 0.0 0.00 0.00 0.00 33 1012.9
20191014230210 78 338 2.0 0.0 0.00 0.00 0.00 34 1013.2
20191014225712 78 293 1.0 0.0 0.00 0.00 0.00 34 1013.2
20191014225210 78 270 3.0 0.0 0.00 0.00 0.00 33 1013.2
20191014224709 79 338 3.0 0.0 0.00 0.00 0.00 33 1013.2
20191014224213 78 203 4.0 0.0 0.00 0.00 0.00 33 1013.2
20191014223711 78 270 4.0 0.0 0.00 0.00 0.00 33 1013.2
20191014223211 78 270 4.0 0.0 0.00 0.00 0.00 33 1013.2
20191014222712 78 270 2.0 0.0 0.00 0.00 0.00 32 1012.9
20191014222212 79 180 4.0 0.0 0.00 0.00 0.00 33 1012.9
20191014221711 79 338 1.0 0.0 0.00 0.00 0.00 32 1013.2
20191014221211 78 113 2.0 0.0 0.00 0.00 0.00 33 1012.9
20191014220711 78 270 5.0 0.0 0.00 0.00 0.00 32 1012.9
20191014220211 78 315 3.0 0.0 0.00 0.00 0.00 34 1013.2
20191014215712 77 338 5.0 0.0 0.00 0.00 0.00 34 1013.2
20191014215212 77 270 1.0 0.0 0.00 0.00 0.00 35 1013.2
20191014214711 77 248 3.0 0.0 0.00 0.00 0.00 34 1012.9
20191014214212 78 203 4.0 0.0 0.00 0.00 0.00 34 1012.9
20191014213712 78 270 3.0 0.0 0.00 0.00 0.00 35 1012.9
20191014213211 78 338 6.0 0.0 0.00 0.00 0.00 35 1013.2
20191014212711 78 315 2.0 0.0 0.00 0.00 0.00 36 1013.2
20191014212210 78 315 3.0 0.0 0.00 0.00 0.00 35 1013.2
20191014211711 77 315 1.0 0.0 0.00 0.00 0.00 35 1013.2
20191014211210 78 293 5.0 0.0 0.00 0.00 0.00 36 1013.2
20191014210710 77 315 7.0 0.0 0.00 0.00 0.00 36 1013.2
20191014210211 78 248 7.0 0.0 0.00 0.00 0.00 37 1013.2
20191014205711 78 315 3.0 0.0 0.00 0.00 0.00 38 1013.2
20191014205210 78 315 3.0 0.0 0.00 0.00 0.00 38 1013.5
20191014204711 76 338 4.0 0.0 0.00 0.00 0.00 40 1013.5
20191014204210 78 45 4.0 0.0 0.00 0.00 0.00 39 1013.5
20191014203709 79 113 4.0 0.0 0.00 0.00 0.00 38 1013.5
20191014203410 79 90 3.0 0.0 0.00 0.00 0.00 40 1013.5
20191014203110 80 90 7.0 0.0 0.00 0.00 0.00 40 1013.5
20191014201711 80 90 4.0 0.0 0.00 0.00 0.00 40 1013.9
20191014201212 79 68 2.0 0.0 0.00 0.00 0.00 40 1013.9
20191014200713 79 158 1.0 0.0 0.00 0.00 0.00 39 1013.9
20191014200212 77 180 2.0 0.0 0.00 0.00 0.00 42 1014.2
20191014195711 80 90 1.0 0.0 0.00 0.00 0.00 40 1014.2
20191014195211 79 158 1.0 0.0 0.00 0.00 0.00 42 1014.2
20191014194709 77 158 4.0 0.0 0.00 0.00 0.00 43 1014.2
20191014194211 79 203 1.0 0.0 0.00 0.00 0.00 41 1014.6
20191014193710 78 293 2.0 0.0 0.00 0.00 0.00 43 1014.6
20191014193215 77 135 4.0 0.0 0.00 0.00 0.00 44 1014.6
20191014192710 77 203 3.0 0.0 0.00 0.00 0.00 42 1014.6
20191014192210 76 158 4.0 0.0 0.00 0.00 0.00 47 1014.6
20191014191713 77 225 3.0 0.0 0.00 0.00 0.00 48 1014.9
20191014191212 77 180 1.0 0.0 0.00 0.00 0.00 47 1014.9
20191014190713 77 180 3.0 0.0 0.00 0.00 0.00 47 1014.9
20191014190211 77 135 2.0 0.0 0.00 0.00 0.00 47 1015.2
20191014185708 76 113 2.0 0.0 0.00 0.00 0.00 50 1014.9
20191014185213 75 90 3.0 0.0 0.00 0.00 0.00 50 1014.9
20191014184712 75 248 4.0 0.0 0.00 0.00 0.00 52 1015.2
20191014184208 73 203 4.0 0.0 0.00 0.00 0.00 52 1015.2
20191014183713 74 248 2.0 0.0 0.00 0.00 0.00 52 1015.2
20191014183211 73 90 4.0 0.0 0.00 0.00 0.00 52 1015.2
20191014182708 73 293 1.0 0.0 0.00 0.00 0.00 54 1015.2
20191014182210 71 90 2.0 0.0 0.00 0.00 0.00 55 1015.6
20191014181709 72 90 3.0 0.0 0.00 0.00 0.00 55 1015.6
20191014181637 73 68 4.0 0.0 0.00 0.00 0.00 54 1015.6
20191014181311 73 180 3.0 0.0 0.00 0.00 0.00 54 1015.2
20191014180511 71 135 2.0 0.0 0.00 0.00 0.00 57 1015.2
20191014175708 69 135 1.0 0.0 0.00 0.00 0.00 60 1015.6
20191014175211 71 135 1.0 0.0 0.00 0.00 0.00 58 1015.6
20191014174709 70 113 2.0 0.0 0.00 0.00 0.00 59 1015.6
20191014174210 68 203 2.0 0.0 0.00 0.00 0.00 61 1015.6
20191014173709 70 248 1.0 0.0 0.00 0.00 0.00 60 1015.6
20191014173211 70 270 2.0 0.0 0.00 0.00 0.00 59 1015.6
20191014172709 65 113 0.0 0.0 0.00 0.00 0.00 67 1015.6
20191014172210 67 158 2.0 0.0 0.00 0.00 0.00 63 1015.6
20191014171711 66 270 0.0 0.0 0.00 0.00 0.00 64 1015.9
20191014171209 69 270 2.0 0.0 0.00 0.00 0.00 61 1015.9
20191014170709 68 203 3.0 0.0 0.00 0.00 0.00 62 1015.9
20191014170213 68 113 1.0 0.0 0.00 0.00 0.00 62 1015.9
20191014165709 65 248 1.0 0.0 0.00 0.00 0.00 68 1015.9
20191014165214 64 338 0.0 0.0 0.00 0.00 0.00 69 1015.9
20191014164710 66 203 0.0 0.0 0.00 0.00 0.00 65 1015.9
20191014164208 63 0 2.0 0.0 0.00 0.00 0.00 70 1015.9
20191014163710 65 113 2.0 0.0 0.00 0.00 0.00 67 1015.9
20191014163210 66 135 2.0 0.0 0.00 0.00 0.00 67 1015.9
20191014162709 65 113 0.0 0.0 0.00 0.00 0.00 67 1015.9
20191014162209 65 113 2.0 0.0 0.00 0.00 0.00 68 1015.9
20191014161711 64 225 0.0 0.0 0.00 0.00 0.00 69 1015.9
20191014161210 64 180 1.0 0.0 0.00 0.00 0.00 69 1015.9
20191014160709 63 90 1.0 0.0 0.00 0.00 0.00 69 1015.9
20191014160211 61 135 1.0 0.0 0.00 0.00 0.00 71 1015.9
20191014155710 60 113 1.0 0.0 0.00 0.00 0.00 71 1015.9
20191014155511 59 158 1.0 0.0 0.00 0.00 0.00 73 1015.6
20191014155012 59 90 0.0 0.0 0.00 0.00 0.00 74 1015.6
20191014154210 59 113 2.0 0.0 0.00 0.00 0.00 75 1015.6
20191014153708 59 158 1.0 0.0 0.00 0.00 0.00 74 1015.6
20191014153211 59 113 1.0 0.0 0.00 0.00 0.00 74 1015.6
20191014152712 58 225 0.0 0.0 0.00 0.00 0.00 75 1015.6
20191014152211 58 90 2.0 0.0 0.00 0.00 0.00 74 1015.6
20191014151712 58 135 2.0 0.0 0.00 0.00 0.00 75 1015.6
20191014151210 58 203 0.0 0.0 0.00 0.00 0.00 77 1015.6
20191014150708 57 248 0.0 0.0 0.00 0.00 0.00 79 1015.6
20191014150210 57 113 0.0 0.0 0.00 0.00 0.00 79 1015.2
20191014150013 57 135 1.0 0.0 0.00 0.00 0.00 80 1015.6